Time;durP1;ratioP1;P1;durP2;ratioP2;P2;SDS_P1;SDS_P2;PMS_P1;PMS_P2;Temp;Humidity;BMP_temperature;BMP_pressure;BME280_temperature;BME280_humidity;BME280_pressure;Samples;Min_cycle;Max_cycle;Signal;HPM_P1;HPM_P2
2021/10/14 00:02:03;;;;;;;6.43;2.30;;;10.60;99.90;;;;;;5096287;22;20970;-53
2021/10/14 00:04:30;;;;;;;2.33;2.10;;;10.70;99.90;;;;;;5079222;28;20445;-49
2021/10/14 00:06:56;;;;;;;6.30;2.43;;;10.70;99.90;;;;;;5094740;22;20493;-53
2021/10/14 00:09:23;;;;;;;3.33;2.33;;;10.70;99.90;;;;;;5099465;28;20469;-52
2021/10/14 00:11:50;;;;;;;2.77;2.30;;;10.60;99.90;;;;;;5095318;22;20557;-47
2021/10/14 00:14:16;;;;;;;6.10;2.60;;;10.60;99.90;;;;;;5100670;22;20485;-50
2021/10/14 00:16:44;;;;;;;5.00;2.10;;;10.60;99.90;;;;;;5098629;28;20502;-51
2021/10/14 00:19:11;;;;;;;2.43;2.23;;;10.60;99.90;;;;;;5090943;22;20874;-48
2021/10/14 00:21:39;;;;;;;4.43;2.37;;;10.70;99.90;;;;;;5078854;28;20455;-50
2021/10/14 00:24:09;;;;;;;3.07;2.10;;;10.70;99.90;;;;;;5099317;22;20542;-50
2021/10/14 00:26:41;;;;;;;4.33;2.20;;;10.70;99.90;;;;;;5097150;28;20471;-52
2021/10/14 00:29:08;;;;;;;6.03;2.57;;;10.70;99.90;;;;;;5094189;22;20481;-50
2021/10/14 00:31:34;;;;;;;10.40;2.17;;;10.70;99.90;;;;;;5078419;28;20431;-50
2021/10/14 00:34:03;;;;;;;3.50;2.37;;;10.70;99.90;;;;;;5093297;22;20961;-51
2021/10/14 00:36:30;;;;;;;4.10;1.70;;;10.70;99.90;;;;;;5098202;28;20433;-54
2021/10/14 00:39:05;;;;;;;9.00;2.20;;;10.70;99.90;;;;;;5098616;22;20565;-52
2021/10/14 00:41:41;;;;;;;3.60;2.27;;;10.70;99.90;;;;;;5077953;28;20485;-47
2021/10/14 00:44:08;;;;;;;7.80;2.40;;;10.60;99.90;;;;;;5090124;22;20486;-55
2021/10/14 00:46:34;;;;;;;4.90;2.23;;;10.70;99.90;;;;;;5085028;28;20535;-56
2021/10/14 00:49:02;;;;;;;3.43;1.77;;;10.70;99.90;;;;;;5108634;22;20535;-52
2021/10/14 00:51:29;;;;;;;3.27;2.20;;;10.60;99.90;;;;;;5085024;28;20776;-56
2021/10/14 00:53:56;;;;;;;2.63;2.13;;;10.60;99.90;;;;;;5092899;22;20430;-54
2021/10/14 00:56:23;;;;;;;5.20;3.17;;;10.50;99.90;;;;;;5085404;28;20480;-53
2021/10/14 01:01:29;;;;;;;7.50;4.37;;;10.50;99.90;;;;;;5105811;22;20888;-55
2021/10/14 01:06:41;;;;;;;4.33;2.63;;;10.50;99.90;;;;;;5111380;22;20488;-55
2021/10/14 01:09:08;;;;;;;2.27;2.07;;;10.50;99.90;;;;;;5104687;28;20481;-54
2021/10/14 01:11:35;;;;;;;3.00;2.00;;;10.50;99.90;;;;;;5094861;22;20993;-54
2021/10/14 01:14:02;;;;;;;5.33;2.20;;;10.50;99.90;;;;;;5084819;28;20462;-55
2021/10/14 01:16:28;;;;;;;2.80;2.40;;;10.50;99.90;;;;;;5108812;22;20493;-56
2021/10/14 01:18:55;;;;;;;6.37;2.97;;;10.50;99.90;;;;;;5104893;28;20434;-57
2021/10/14 01:21:23;;;;;;;5.43;3.00;;;10.60;99.90;;;;;;5097601;22;20543;-50
2021/10/14 01:23:50;;;;;;;5.07;2.20;;;10.60;99.90;;;;;;5083728;28;20446;-52
2021/10/14 01:26:17;;;;;;;5.00;3.17;;;10.50;99.90;;;;;;5103303;22;20497;-55
2021/10/14 01:28:46;;;;;;;2.90;2.63;;;10.60;99.90;;;;;;5104089;28;20511;-55
2021/10/14 01:31:13;;;;;;;6.70;3.37;;;10.60;99.90;;;;;;5102882;22;20563;-51
2021/10/14 01:33:40;;;;;;;4.93;2.80;;;10.60;99.90;;;;;;5084331;28;20450;-54
2021/10/14 01:38:51;;;;;;;5.03;2.90;;;10.60;99.90;;;;;;5092193;22;20869;-51
2021/10/14 01:43:59;;;;;;;3.50;2.23;;;10.60;99.90;;;;;;5110583;22;20577;-52
2021/10/14 01:46:25;;;;;;;2.97;2.10;;;10.60;99.90;;;;;;5104092;28;20514;-54
2021/10/14 01:48:52;;;;;;;4.73;3.67;;;10.60;99.90;;;;;;5109888;22;20478;-54
2021/10/14 01:51:19;;;;;;;3.67;2.33;;;10.60;99.90;;;;;;5083802;28;20449;-57
2021/10/14 01:53:46;;;;;;;4.07;3.10;;;10.60;99.90;;;;;;5106950;22;20485;-58
2021/10/14 01:56:14;;;;;;;5.57;2.70;;;10.60;99.90;;;;;;5103524;28;20471;-53
2021/10/14 01:58:45;;;;;;;4.27;3.30;;;10.60;99.90;;;;;;5097329;22;20489;-58
2021/10/14 02:01:14;;;;;;;10.40;2.57;;;10.60;99.90;;;;;;5083257;28;20516;-54
2021/10/14 02:03:41;;;;;;;4.33;2.50;;;10.70;99.90;;;;;;5090600;22;20496;-56
2021/10/14 02:06:07;;;;;;;3.70;2.93;;;10.70;99.90;;;;;;5083635;28;20532;-57
2021/10/14 02:08:34;;;;;;;6.10;3.00;;;10.70;99.90;;;;;;5091284;22;20551;-52
2021/10/14 02:11:00;;;;;;;6.33;3.43;;;10.70;99.90;;;;;;5083448;28;20503;-50
2021/10/14 02:13:28;;;;;;;4.07;3.20;;;10.70;99.90;;;;;;5098017;22;20497;-54
2021/10/14 02:15:55;;;;;;;4.37;3.17;;;10.60;99.90;;;;;;5103348;28;20461;-57
2021/10/14 02:18:24;;;;;;;4.50;2.93;;;10.60;99.90;;;;;;5106476;22;20563;-56
2021/10/14 02:20:54;;;;;;;3.63;2.70;;;10.70;99.90;;;;;;5083473;28;20502;-55
2021/10/14 02:23:20;;;;;;;9.97;3.07;;;10.70;99.90;;;;;;5090456;22;22738;-58
2021/10/14 02:25:47;;;;;;;3.00;2.10;;;10.70;99.90;;;;;;5082684;28;20524;-57
2021/10/14 02:28:14;;;;;;;8.60;3.53;;;10.70;99.90;;;;;;5091360;22;20492;-57
2021/10/14 02:30:52;;;;;;;4.23;2.63;;;10.70;99.90;;;;;;5082024;28;20478;-54
2021/10/14 02:35:59;;;;;;;6.63;3.60;;;10.70;99.90;;;;;;5124296;22;20497;-51
2021/10/14 02:38:26;;;;;;;10.00;3.03;;;10.70;99.90;;;;;;5103496;28;20518;-55
2021/10/14 02:40:52;;;;;;;5.93;3.50;;;10.70;99.90;;;;;;5074430;22;20886;-54
2021/10/14 02:43:19;;;;;;;10.00;4.83;;;10.60;99.90;;;;;;5063439;28;20533;-57
2021/10/14 02:45:47;;;;;;;4.63;3.27;;;10.60;99.90;;;;;;5088313;22;20491;-57
2021/10/14 02:48:14;;;;;;;10.80;2.90;;;10.60;99.90;;;;;;5062839;28;20501;-56
2021/10/14 02:50:40;;;;;;;7.30;4.00;;;10.60;99.90;;;;;;5098478;22;20557;-57
2021/10/14 02:53:09;;;;;;;6.30;3.10;;;10.70;99.90;;;;;;5103523;28;20811;-49
2021/10/14 02:55:35;;;;;;;6.40;3.50;;;10.60;99.90;;;;;;5098546;22;20524;-56
2021/10/14 02:58:02;;;;;;;5.97;2.87;;;10.60;99.90;;;;;;5082912;28;21008;-55
2021/10/14 03:00:29;;;;;;;8.10;3.63;;;10.60;99.90;;;;;;5106639;22;20550;-57
2021/10/14 03:02:57;;;;;;;4.97;3.17;;;10.60;99.90;;;;;;5082101;28;20470;-57
2021/10/14 03:05:24;;;;;;;5.07;2.63;;;10.60;99.90;;;;;;5081812;28;20447;-55
2021/10/14 03:07:50;;;;;;;8.33;3.03;;;10.60;99.90;;;;;;5107703;22;21039;-57
2021/10/14 03:10:17;;;;;;;3.57;2.80;;;10.60;99.90;;;;;;5102924;28;20756;-57
2021/10/14 03:12:46;;;;;;;5.40;2.90;;;10.60;99.90;;;;;;5076739;22;20561;-55
2021/10/14 03:15:21;;;;;;;4.13;2.30;;;10.60;99.90;;;;;;5063198;28;20467;-52
2021/10/14 03:17:52;;;;;;;2.90;2.20;;;10.50;99.90;;;;;;5087260;22;20532;-56
2021/10/14 03:20:21;;;;;;;3.73;2.53;;;10.50;99.90;;;;;;5082873;28;20423;-55
2021/10/14 03:22:47;;;;;;;7.20;2.17;;;10.50;99.90;;;;;;5089318;22;20494;-56
2021/10/14 03:25:14;;;;;;;3.50;2.07;;;10.50;99.90;;;;;;5082421;28;20548;-53
2021/10/14 03:27:41;;;;;;;5.73;2.10;;;10.50;99.90;;;;;;5117194;22;20496;-55
2021/10/14 03:30:09;;;;;;;3.00;2.40;;;10.50;99.90;;;;;;5101870;28;20533;-52
2021/10/14 03:32:36;;;;;;;2.80;2.27;;;10.50;99.90;;;;;;5091719;22;20483;-53
2021/10/14 03:35:17;;;;;;;4.37;2.00;;;10.50;99.90;;;;;;5062462;28;20474;-57
2021/10/14 03:37:46;;;;;;;4.80;2.20;;;10.50;99.90;;;;;;5086375;22;20493;-52
2021/10/14 03:40:13;;;;;;;4.90;2.30;;;10.50;99.90;;;;;;5102498;28;20432;-53
2021/10/14 03:42:40;;;;;;;4.83;1.87;;;10.40;99.90;;;;;;5103338;22;20485;-56
2021/10/14 03:45:13;;;;;;;3.70;2.90;;;10.40;99.90;;;;;;5082080;28;20446;-56
2021/10/14 03:47:39;;;;;;;4.93;2.70;;;10.30;99.90;;;;;;5091970;22;20582;-57
2021/10/14 03:50:08;;;;;;;8.00;2.13;;;10.40;99.90;;;;;;5101626;28;20942;-51
2021/10/14 03:52:35;;;;;;;4.17;2.10;;;10.40;99.90;;;;;;5107805;22;20449;-54
2021/10/14 03:55:05;;;;;;;4.47;2.53;;;10.40;99.90;;;;;;5061558;28;20888;-54
2021/10/14 04:00:01;;;;;;;3.30;2.43;;;10.30;99.90;;;;;;5106566;22;20481;-56
2021/10/14 04:02:28;;;;;;;3.90;2.50;;;10.30;99.90;;;;;;5101420;28;20519;-53
2021/10/14 04:04:55;;;;;;;5.50;4.00;;;10.20;99.90;;;;;;5091748;22;20494;-52
2021/10/14 04:07:21;;;;;;;4.90;3.07;;;10.20;99.90;;;;;;5082411;28;20965;-53
2021/10/14 04:09:48;;;;;;;3.93;2.97;;;10.20;99.90;;;;;;5089067;22;20520;-51
2021/10/14 04:12:16;;;;;;;5.13;3.30;;;10.20;99.90;;;;;;5081421;28;20472;-55
2021/10/14 04:14:44;;;;;;;4.43;2.53;;;10.20;99.90;;;;;;5076006;22;20522;-54
2021/10/14 04:17:11;;;;;;;5.47;2.80;;;10.20;99.90;;;;;;5060379;28;20444;-56
2021/10/14 04:19:40;;;;;;;3.37;2.37;;;10.20;99.90;;;;;;5105216;22;20852;-54
2021/10/14 04:22:09;;;;;;;6.73;2.80;;;10.20;99.90;;;;;;5101374;28;20893;-55
2021/10/14 04:24:38;;;;;;;4.20;2.50;;;10.20;99.90;;;;;;5101003;22;21048;-55
2021/10/14 04:27:04;;;;;;;5.23;2.77;;;10.20;99.90;;;;;;5081475;28;20457;-52
2021/10/14 04:29:32;;;;;;;4.00;2.23;;;10.20;99.90;;;;;;5082432;22;20525;-56
2021/10/14 04:32:00;;;;;;;5.80;2.77;;;10.20;99.90;;;;;;5061379;28;20459;-53
2021/10/14 04:34:27;;;;;;;5.60;3.30;;;10.20;99.90;;;;;;5073371;22;20486;-54
2021/10/14 04:36:53;;;;;;;3.70;2.63;;;10.20;99.90;;;;;;5081607;28;20875;-54
2021/10/14 04:39:21;;;;;;;4.03;2.53;;;10.10;99.90;;;;;;5090041;22;20467;-55
2021/10/14 04:41:49;;;;;;;3.40;2.80;;;10.20;99.90;;;;;;5101165;28;20430;-54
2021/10/14 04:46:58;;;;;;;5.43;2.43;;;10.20;99.90;;;;;;5088917;22;20493;-55
2021/10/14 04:49:24;;;;;;;4.03;2.70;;;10.20;99.90;;;;;;5081522;28;20466;-57
2021/10/14 04:51:54;;;;;;;3.00;2.10;;;10.20;99.90;;;;;;5107011;22;20515;-53
2021/10/14 04:54:21;;;;;;;3.40;2.23;;;10.30;99.90;;;;;;5101191;28;20480;-57
2021/10/14 04:56:51;;;;;;;4.17;2.50;;;10.20;99.90;;;;;;5108133;22;20488;-56
2021/10/14 04:59:19;;;;;;;4.00;2.63;;;10.30;99.90;;;;;;5100863;28;20469;-55
2021/10/14 05:01:45;;;;;;;3.63;2.37;;;10.30;99.90;;;;;;5095076;22;20561;-56
2021/10/14 05:04:14;;;;;;;4.37;1.83;;;10.30;99.90;;;;;;5061300;28;20529;-57
2021/10/14 05:06:45;;;;;;;6.30;2.73;;;10.30;99.90;;;;;;5078458;22;20492;-56
2021/10/14 05:09:12;;;;;;;3.00;2.53;;;10.40;99.90;;;;;;5100769;28;20470;-57
2021/10/14 05:11:38;;;;;;;4.37;2.80;;;10.40;99.90;;;;;;5121227;22;22323;-56
2021/10/14 05:14:07;;;;;;;3.80;2.73;;;10.40;99.90;;;;;;5081348;28;20850;-53
2021/10/14 05:16:39;;;;;;;4.90;2.20;;;10.40;99.90;;;;;;5089688;22;20458;-56
2021/10/14 05:19:06;;;;;;;3.60;2.30;;;10.30;99.90;;;;;;5060337;28;20502;-51
2021/10/14 05:24:18;;;;;;;4.63;2.10;;;10.30;99.90;;;;;;5088876;22;20486;-56
2021/10/14 05:26:44;;;;;;;5.00;3.20;;;10.40;99.90;;;;;;5080869;28;20511;-54
2021/10/14 05:29:11;;;;;;;3.13;2.53;;;10.40;99.90;;;;;;5090502;22;20489;-51
2021/10/14 05:31:37;;;;;;;2.80;2.17;;;10.40;99.90;;;;;;5084509;28;20493;-54
2021/10/14 05:34:04;;;;;;;2.70;2.03;;;10.40;99.90;;;;;;5092098;22;20551;-55
2021/10/14 05:36:33;;;;;;;3.40;1.60;;;10.40;99.90;;;;;;5084214;28;20493;-57
2021/10/14 05:39:01;;;;;;;3.30;1.93;;;10.40;99.90;;;;;;5106236;22;20496;-56
2021/10/14 05:41:28;;;;;;;4.33;2.20;;;10.40;99.90;;;;;;5104027;28;20418;-57
2021/10/14 05:43:54;;;;;;;3.40;2.23;;;10.40;99.90;;;;;;5087619;22;20494;-58
2021/10/14 05:46:21;;;;;;;3.00;2.13;;;10.40;99.90;;;;;;5064749;28;20446;-54
2021/10/14 05:48:48;;;;;;;2.60;2.00;;;10.40;99.90;;;;;;5095989;22;20577;-52
2021/10/14 05:51:14;;;;;;;3.87;2.83;;;10.40;99.90;;;;;;5043912;28;20836;-55
2021/10/14 05:56:25;;;;;;;3.10;2.30;;;10.40;99.90;;;;;;5127265;22;20484;-57
2021/10/14 06:01:33;;;;;;;2.70;2.00;;;10.50;99.90;;;;;;5089912;22;20493;-54
2021/10/14 06:04:02;;;;;;;3.83;2.10;;;10.50;99.90;;;;;;5082612;28;20907;-56
2021/10/14 06:06:31;;;;;;;2.57;1.80;;;10.50;99.90;;;;;;5091238;22;20509;-57
2021/10/14 06:08:58;;;;;;;2.57;1.90;;;10.60;99.90;;;;;;5082764;28;20549;-57
2021/10/14 06:11:28;;;;;;;2.90;1.83;;;10.60;99.90;;;;;;5090842;22;20519;-53
2021/10/14 06:13:54;;;;;;;2.20;1.73;;;10.60;99.90;;;;;;5078894;28;20457;-56
2021/10/14 06:16:21;;;;;;;2.87;2.40;;;10.60;99.90;;;;;;5099190;22;20554;-57
2021/10/14 06:18:48;;;;;;;3.00;2.03;;;10.60;99.90;;;;;;5096715;28;20464;-53
2021/10/14 06:21:14;;;;;;;2.67;2.00;;;10.70;99.90;;;;;;5092616;22;20490;-57
2021/10/14 06:23:41;;;;;;;4.20;2.20;;;10.70;99.90;;;;;;5076744;28;20450;-53
2021/10/14 06:26:08;;;;;;;3.37;1.80;;;10.70;99.90;;;;;;5094028;22;20493;-57
2021/10/14 06:28:36;;;;;;;2.50;2.13;;;10.70;99.90;;;;;;5097111;28;20441;-52
2021/10/14 06:31:02;;;;;;;2.37;1.70;;;10.70;99.90;;;;;;5097030;22;20880;-55
2021/10/14 06:33:29;;;;;;;2.07;1.57;;;10.70;99.90;;;;;;5076618;28;20587;-56
2021/10/14 06:35:56;;;;;;;3.03;1.87;;;10.70;99.90;;;;;;5089219;22;20530;-56
2021/10/14 06:38:23;;;;;;;3.17;2.00;;;10.70;99.90;;;;;;5096490;28;20469;-57
2021/10/14 06:40:50;;;;;;;2.00;1.60;;;10.70;99.90;;;;;;5100770;22;20956;-57
2021/10/14 06:43:17;;;;;;;1.57;1.47;;;10.70;99.90;;;;;;5076464;28;20903;-55
2021/10/14 06:45:45;;;;;;;3.20;2.27;;;10.80;99.90;;;;;;5085676;22;20512;-54
2021/10/14 06:48:12;;;;;;;3.87;2.10;;;10.80;99.90;;;;;;5091524;22;20530;-51
2021/10/14 06:50:38;;;;;;;2.70;2.10;;;10.80;99.90;;;;;;5076137;28;20795;-58
2021/10/14 06:53:08;;;;;;;3.07;2.37;;;10.80;99.90;;;;;;5093588;22;20489;-53
2021/10/14 06:55:35;;;;;;;3.77;2.00;;;10.90;99.90;;;;;;5096285;28;20469;-56
2021/10/14 06:58:02;;;;;;;2.20;1.93;;;10.90;99.90;;;;;;5096195;22;20552;-53
2021/10/14 07:00:29;;;;;;;2.53;2.13;;;11.00;99.90;;;;;;5075980;28;20466;-53
2021/10/14 07:02:57;;;;;;;2.90;2.47;;;11.00;99.90;;;;;;5088952;22;20523;-52
2021/10/14 07:05:23;;;;;;;4.67;1.80;;;11.10;99.90;;;;;;5096327;28;20523;-58
2021/10/14 07:07:50;;;;;;;2.50;2.07;;;11.10;99.90;;;;;;5101044;22;20494;-56
2021/10/14 07:10:17;;;;;;;1.97;1.70;;;11.10;99.90;;;;;;5075741;28;20549;-55
2021/10/14 07:12:45;;;;;;;2.50;1.57;;;11.20;99.90;;;;;;5084809;22;20919;-53
2021/10/14 07:15:11;;;;;;;2.63;1.70;;;11.20;99.90;;;;;;5095140;28;20469;-54
2021/10/14 07:17:38;;;;;;;2.20;1.80;;;11.20;99.90;;;;;;5095731;28;20926;-54
2021/10/14 07:20:08;;;;;;;7.60;2.30;;;11.30;99.90;;;;;;5086191;22;20990;-57
2021/10/14 07:22:35;;;;;;;3.83;2.70;;;11.40;99.90;;;;;;5075561;28;20438;-49
2021/10/14 07:25:01;;;;;;;4.17;3.27;;;11.30;99.90;;;;;;5099774;22;20554;-59
2021/10/14 07:27:28;;;;;;;3.07;2.60;;;11.40;99.90;;;;;;5095507;28;20704;-55
2021/10/14 07:29:55;;;;;;;5.23;3.00;;;11.40;99.90;;;;;;5088923;22;20965;-57
2021/10/14 07:32:21;;;;;;;5.30;2.30;;;11.50;99.90;;;;;;5075468;28;20430;-56
2021/10/14 07:34:48;;;;;;;5.23;3.43;;;11.50;99.90;;;;;;5093249;22;20485;-54
2021/10/14 07:37:19;;;;;;;3.90;2.60;;;11.40;99.90;;;;;;5095702;28;20504;-58
2021/10/14 07:39:46;;;;;;;4.67;2.90;;;11.40;99.90;;;;;;5094905;22;20482;-56
2021/10/14 07:42:13;;;;;;;3.47;2.77;;;11.50;99.90;;;;;;5075236;28;20427;-54
2021/10/14 07:44:40;;;;;;;6.70;3.27;;;11.50;99.90;;;;;;5082619;22;20500;-56
2021/10/14 07:47:07;;;;;;;6.10;3.23;;;11.50;99.90;;;;;;5075055;28;20431;-57
2021/10/14 08:23:16;;;;;;;8.33;5.23;;;11.90;99.90;;;;;;1059939;22;20826;-54
2021/10/14 13:05:20;;;;;;;7.60;4.43;;;14.10;99.90;;;;;;5062131;22;20479;-56
2021/10/14 13:07:47;;;;;;;6.53;4.40;;;14.10;99.90;;;;;;5053330;28;20835;-58
2021/10/14 13:12:13;;;;;;;12.20;5.90;;;14.10;99.90;;;;;;5092263;27;20944;-57
2021/10/14 13:14:40;;;;;;;10.33;4.43;;;13.90;99.90;;;;;;5099490;22;20434;-57
2021/10/14 13:17:07;;;;;;;6.93;4.20;;;13.90;99.90;;;;;;5051220;28;20475;-56
2021/10/14 13:19:34;;;;;;;7.00;5.10;;;13.90;99.90;;;;;;5051618;28;20447;-56
2021/10/14 13:22:01;;;;;;;6.20;4.83;;;14.00;99.90;;;;;;5059096;22;20501;-57
2021/10/14 13:24:28;;;;;;;11.73;4.87;;;14.00;99.90;;;;;;5052028;28;20446;-57
2021/10/14 13:26:59;;;;;;;10.10;4.97;;;13.90;99.90;;;;;;5058942;22;20487;-58
2021/10/14 13:29:27;;;;;;;9.10;5.17;;;13.90;99.90;;;;;;5051766;28;20434;-58
2021/10/14 13:31:54;;;;;;;6.03;4.10;;;14.00;99.90;;;;;;5058909;22;20507;-58
2021/10/14 13:34:22;;;;;;;9.10;4.17;;;14.00;99.90;;;;;;5051605;28;20465;-55
2021/10/14 13:36:49;;;;;;;7.50;4.70;;;14.00;99.90;;;;;;5066509;22;20487;-56
2021/10/14 13:39:17;;;;;;;6.10;3.93;;;14.00;99.90;;;;;;5055864;28;20570;-58
2021/10/14 13:41:43;;;;;;;6.20;3.87;;;14.10;99.90;;;;;;5059407;22;20493;-57
2021/10/14 13:44:16;;;;;;;6.07;3.80;;;14.10;99.90;;;;;;5051478;28;20954;-56
2021/10/14 13:49:10;;;;;;;7.10;4.23;;;14.20;99.90;;;;;;5076287;22;20559;-52
2021/10/14 13:51:39;;;;;;;9.63;4.43;;;14.20;99.90;;;;;;5070925;28;20493;-55
2021/10/14 13:54:07;;;;;;;7.23;4.07;;;14.20;99.90;;;;;;5060712;22;21041;-57
2021/10/14 13:56:36;;;;;;;11.80;6.50;;;14.30;99.90;;;;;;5050943;28;20917;-57
2021/10/14 13:59:03;;;;;;;9.00;4.20;;;14.20;99.90;;;;;;5058671;22;20488;-56
2021/10/14 14:01:30;;;;;;;5.23;3.70;;;14.20;99.90;;;;;;5051165;28;20456;-57
2021/10/14 14:03:57;;;;;;;6.00;3.80;;;14.10;99.90;;;;;;5071772;22;20498;-58
2021/10/14 14:06:29;;;;;;;6.37;3.73;;;14.20;99.90;;;;;;5070568;28;20458;-57
2021/10/14 14:08:55;;;;;;;7.60;4.67;;;14.20;99.90;;;;;;5066425;22;20545;-56
2021/10/14 14:11:22;;;;;;;7.20;3.67;;;14.10;99.90;;;;;;5050812;28;20482;-56
2021/10/14 14:13:49;;;;;;;6.07;4.60;;;14.10;99.90;;;;;;5058187;22;20575;-52
2021/10/14 14:16:17;;;;;;;6.97;4.33;;;14.10;99.90;;;;;;5050582;28;20801;-57
2021/10/14 14:18:43;;;;;;;7.37;4.60;;;14.10;99.90;;;;;;5065073;22;20528;-57
2021/10/14 14:21:12;;;;;;;9.77;5.63;;;14.10;99.90;;;;;;5070682;28;20454;-54
2021/10/14 14:23:40;;;;;;;10.37;5.27;;;14.00;99.90;;;;;;5059578;22;20488;-55
2021/10/14 14:26:07;;;;;;;10.00;5.83;;;14.00;99.90;;;;;;5044831;22;20502;-57
2021/10/14 14:28:34;;;;;;;15.63;5.60;;;14.00;99.90;;;;;;5037238;28;20483;-56
2021/10/14 14:31:01;;;;;;;8.00;5.03;;;14.00;99.90;;;;;;5059018;22;20959;-57
2021/10/14 14:33:29;;;;;;;23.70;7.80;;;13.90;99.90;;;;;;5056966;28;20478;-57
2021/10/14 14:35:58;;;;;;;7.53;5.73;;;13.90;99.90;;;;;;5052217;22;20487;-56
2021/10/14 14:38:26;;;;;;;8.80;5.67;;;13.80;99.90;;;;;;5037015;28;20502;-59
2021/10/14 14:40:58;;;;;;;8.77;5.40;;;13.90;99.90;;;;;;5044489;22;20492;-58
2021/10/14 14:43:26;;;;;;;10.73;6.07;;;13.90;99.90;;;;;;5036699;28;20468;-57
2021/10/14 14:45:57;;;;;;;8.80;6.07;;;13.90;99.90;;;;;;5053075;22;20494;-56
2021/10/14 14:48:24;;;;;;;11.27;5.30;;;14.00;99.90;;;;;;5056845;28;20537;-57
2021/10/14 14:50:52;;;;;;;12.77;5.87;;;14.00;99.90;;;;;;5057384;22;20495;-57
2021/10/14 14:53:21;;;;;;;9.33;4.90;;;14.00;99.90;;;;;;5036848;28;20975;-53
2021/10/14 14:55:48;;;;;;;7.63;5.27;;;14.00;99.90;;;;;;5044192;22;20503;-55
2021/10/14 14:58:17;;;;;;;10.90;7.10;;;13.90;99.90;;;;;;5036708;28;20471;-57
2021/10/14 15:00:45;;;;;;;12.47;5.13;;;13.90;99.90;;;;;;5047104;22;20596;-58
2021/10/14 15:03:12;;;;;;;7.80;4.97;;;13.90;99.90;;;;;;5056369;28;20479;-58
2021/10/14 15:05:39;;;;;;;7.77;5.30;;;13.90;99.90;;;;;;5064354;22;20439;-58
2021/10/14 15:08:07;;;;;;;6.00;4.00;;;13.90;99.90;;;;;;5043693;22;20574;-58
2021/10/14 15:10:35;;;;;;;11.53;5.90;;;13.90;99.90;;;;;;5036539;28;20479;-58
2021/10/14 15:13:03;;;;;;;7.97;5.20;;;13.90;99.90;;;;;;5054348;22;20988;-56
2021/10/14 15:15:31;;;;;;;8.20;5.03;;;13.80;99.90;;;;;;5056473;28;20450;-58
2021/10/14 15:17:58;;;;;;;10.03;4.60;;;13.80;99.90;;;;;;5055416;22;20523;-57
2021/10/14 15:20:27;;;;;;;11.93;4.87;;;13.80;99.90;;;;;;5036394;28;20463;-58
2021/10/14 15:23:06;;;;;;;11.53;5.47;;;13.80;99.90;;;;;;5071790;22;20483;-55
2021/10/14 15:25:34;;;;;;;8.53;5.10;;;13.70;99.90;;;;;;5057411;28;20468;-51
2021/10/14 15:28:02;;;;;;;8.70;4.60;;;13.70;99.90;;;;;;5065410;22;20490;-55
2021/10/14 15:30:32;;;;;;;11.13;5.57;;;13.70;99.90;;;;;;5057736;28;20428;-53
2021/10/14 15:32:59;;;;;;;6.00;4.37;;;13.70;99.90;;;;;;5064723;22;20499;-54
2021/10/14 15:35:28;;;;;;;6.93;5.43;;;13.70;99.90;;;;;;5056648;28;20444;-51
2021/10/14 15:37:56;;;;;;;7.30;4.93;;;13.70;99.90;;;;;;5064919;22;20444;-58
2021/10/14 15:40:24;;;;;;;7.37;4.50;;;13.70;99.90;;;;;;5057484;28;20435;-54
2021/10/14 15:42:50;;;;;;;7.63;5.63;;;13.70;99.90;;;;;;5056899;28;20563;-49
2021/10/14 15:45:29;;;;;;;8.47;5.37;;;13.80;99.90;;;;;;5065075;22;20476;-55
2021/10/14 15:48:02;;;;;;;6.90;4.47;;;13.80;99.90;;;;;;5056781;28;20469;-55
2021/10/14 15:50:38;;;;;;;7.30;5.43;;;13.70;99.90;;;;;;5063856;22;20483;-52
2021/10/14 15:53:06;;;;;;;6.37;4.60;;;13.70;99.90;;;;;;5056888;28;20425;-55
2021/10/14 15:55:33;;;;;;;7.97;5.10;;;13.70;99.90;;;;;;5094326;22;20519;-56
2021/10/14 15:58:00;;;;;;;5.77;3.90;;;13.70;99.90;;;;;;5056426;28;20516;-59
2021/10/14 16:00:28;;;;;;;7.60;4.30;;;13.60;99.90;;;;;;5064153;22;20476;-53
2021/10/14 16:02:59;;;;;;;4.60;4.03;;;13.60;99.90;;;;;;5056692;28;20447;-54
2021/10/14 16:05:29;;;;;;;7.73;4.77;;;13.60;99.90;;;;;;5064469;22;20468;-50
2021/10/14 16:07:56;;;;;;;5.40;4.10;;;13.50;99.90;;;;;;5056038;28;20460;-52
2021/10/14 16:10:23;;;;;;;5.50;4.03;;;13.50;99.90;;;;;;5079287;22;20751;-51
2021/10/14 16:12:50;;;;;;;6.63;4.70;;;13.50;99.90;;;;;;5056640;28;20539;-53
2021/10/14 16:15:18;;;;;;;5.67;4.00;;;13.50;99.90;;;;;;5079536;22;20539;-56
2021/10/14 16:17:48;;;;;;;6.30;4.00;;;13.50;99.90;;;;;;5056598;28;20444;-55
2021/10/14 16:20:16;;;;;;;5.40;4.23;;;13.50;99.90;;;;;;5063806;22;20484;-54
2021/10/14 16:22:43;;;;;;;6.70;4.97;;;13.50;99.90;;;;;;5056040;28;20511;-56
2021/10/14 16:25:10;;;;;;;8.13;5.50;;;13.40;99.90;;;;;;5063771;22;20506;-55
2021/10/14 16:27:38;;;;;;;10.37;5.20;;;13.40;99.90;;;;;;5056262;28;20452;-55
2021/10/14 16:30:06;;;;;;;6.13;4.20;;;13.50;99.90;;;;;;5063031;22;20507;-53
2021/10/14 16:32:36;;;;;;;7.93;5.77;;;13.40;99.90;;;;;;5056740;28;20833;-55
2021/10/14 16:35:04;;;;;;;6.47;5.27;;;13.50;99.90;;;;;;5079353;22;20432;-54
2021/10/14 16:37:33;;;;;;;6.90;5.30;;;13.50;99.90;;;;;;5055912;28;20454;-57
2021/10/14 16:40:00;;;;;;;8.37;5.10;;;13.50;99.90;;;;;;5056079;28;20445;-52
2021/10/14 16:42:27;;;;;;;6.63;5.17;;;13.50;99.90;;;;;;5078994;22;20492;-52
2021/10/14 16:44:54;;;;;;;10.07;5.00;;;13.50;99.90;;;;;;5055337;28;20472;-57
2021/10/14 16:47:21;;;;;;;9.20;4.60;;;13.50;99.90;;;;;;5078565;22;20523;-56
2021/10/14 16:49:47;;;;;;;10.03;5.40;;;13.50;99.90;;;;;;5056687;28;20451;-59
2021/10/14 16:52:15;;;;;;;6.20;5.30;;;13.50;99.90;;;;;;5063926;23;20476;-56
2021/10/14 16:54:46;;;;;;;15.50;8.50;;;13.50;99.90;;;;;;5055473;28;20527;-55
2021/10/14 16:57:14;;;;;;;7.20;5.53;;;13.50;99.90;;;;;;5079368;22;20563;-61
2021/10/14 16:59:41;;;;;;;10.20;5.90;;;13.50;99.90;;;;;;5055463;28;20491;-61
2021/10/14 17:04:38;;;;;;;5.00;4.50;;;13.50;99.90;;;;;;5013715;28;20498;-48
2021/10/14 17:07:04;;;;;;;6.40;4.20;;;13.40;99.90;;;;;;5014860;28;20458;-48
2021/10/14 17:09:34;;;;;;;6.83;5.00;;;13.40;99.90;;;;;;5013583;28;20544;-50
2021/10/14 17:12:02;;;;;;;5.50;4.60;;;13.40;99.90;;;;;;5014337;28;20493;-51
2021/10/14 17:14:38;;;;;;;8.43;6.00;;;13.40;99.90;;;;;;5014272;28;20525;-51
2021/10/14 17:17:05;;;;;;;7.33;5.00;;;13.40;99.90;;;;;;5014145;28;20517;-45
2021/10/14 17:19:36;;;;;;;11.47;6.50;;;13.40;99.90;;;;;;5013868;28;20466;-48
2021/10/14 17:36:04;;;;;;;8.17;5.40;;;13.40;99.90;;;;;;5014476;28;20449;-51
2021/10/14 17:38:32;;;;;;;7.53;6.17;;;13.40;99.90;;;;;;5015244;28;20431;-51
2021/10/14 17:41:01;;;;;;;6.20;4.77;;;13.30;99.90;;;;;;5015549;28;20446;-49
2021/10/14 17:43:38;;;;;;;8.20;4.37;;;13.30;99.90;;;;;;5014672;28;20454;-53
2021/10/14 17:46:17;;;;;;;6.17;5.10;;;13.30;99.90;;;;;;5014779;28;20496;-49
2021/10/14 17:48:45;;;;;;;7.90;5.30;;;13.30;99.90;;;;;;5014136;28;20465;-49
2021/10/14 17:51:14;;;;;;;6.77;4.90;;;13.20;99.90;;;;;;5014621;28;20458;-54
2021/10/14 17:53:45;;;;;;;8.73;5.63;;;13.20;99.90;;;;;;5014586;28;20533;-47
2021/10/14 17:56:13;;;;;;;7.13;4.50;;;13.20;99.90;;;;;;5014378;28;20441;-51
2021/10/14 17:58:41;;;;;;;8.00;5.10;;;13.20;99.90;;;;;;5016816;28;20456;-51
2021/10/14 18:01:13;;;;;;;8.87;5.87;;;13.20;99.90;;;;;;5018260;28;20513;-49
2021/10/14 18:03:48;;;;;;;7.90;6.13;;;13.20;99.90;;;;;;5017345;28;20776;-50
2021/10/14 18:06:27;;;;;;;10.30;6.20;;;13.20;99.90;;;;;;5017907;28;20437;-51
2021/10/14 18:39:12;;;;;;;9.17;5.63;;;13.20;99.90;;;;;;5016970;28;20906;-51
2021/10/14 18:41:41;;;;;;;10.00;6.93;;;13.20;99.90;;;;;;5017095;28;20469;-47
2021/10/14 18:44:09;;;;;;;11.90;5.80;;;13.20;99.90;;;;;;5016424;28;20429;-46
2021/10/14 18:46:37;;;;;;;10.93;6.90;;;13.20;99.90;;;;;;5016692;28;20470;-52
2021/10/14 18:49:07;;;;;;;27.87;12.97;;;13.20;99.90;;;;;;5017252;28;20477;-54
2021/10/14 18:51:36;;;;;;;13.10;7.63;;;13.10;99.90;;;;;;5016621;28;20478;-48
2021/10/14 18:54:03;;;;;;;9.83;6.40;;;13.10;99.90;;;;;;5016271;28;20525;-48
2021/10/14 18:56:45;;;;;;;8.60;6.40;;;13.20;99.90;;;;;;5016767;28;20842;-49
2021/10/14 18:59:15;;;;;;;10.50;6.00;;;13.10;99.90;;;;;;5016653;28;20442;-53
2021/10/14 19:01:45;;;;;;;7.10;5.43;;;13.20;99.90;;;;;;5016447;28;20431;-52
2021/10/14 19:04:15;;;;;;;11.40;7.33;;;13.10;99.90;;;;;;5016810;28;20446;-53
2021/10/14 19:06:54;;;;;;;12.23;5.30;;;13.10;99.90;;;;;;5017400;28;20442;-47
2021/10/14 19:09:41;;;;;;;12.97;6.63;;;13.10;99.90;;;;;;5016970;28;20422;-47
2021/10/14 19:15:06;;;;;;;9.57;7.00;;;13.10;99.90;;;;;;5017171;28;20504;-49
2021/10/14 19:17:48;;;;;;;8.70;6.00;;;13.00;99.90;;;;;;5016171;28;20453;-50
2021/10/14 19:20:44;;;;;;;10.17;7.47;;;13.10;99.90;;;;;;5015304;28;20470;-53
2021/10/14 20:21:39;;;;;;;20.33;9.37;;;12.90;99.90;;;;;;4980363;28;20491;-51
2021/10/14 20:24:08;;;;;;;15.23;9.60;;;13.00;99.90;;;;;;5015584;28;20454;-53